createdAt,value
2022-09-10T00:00:33.851Z,0.10
2022-09-10T00:03:07.702Z,0.25
2022-09-10T00:05:46.733Z,0.00
2022-09-10T00:11:12.666Z,0.17
2022-09-10T00:13:43.831Z,0.20
2022-09-10T00:16:18.042Z,0.50
2022-09-10T00:18:49.948Z,0.30
2022-09-10T00:21:22.908Z,0.20
2022-09-10T00:23:53.532Z,0.10
2022-09-10T00:26:27.072Z,0.10
2022-09-10T00:29:00.129Z,0.10
2022-09-10T00:31:32.206Z,0.10
2022-09-10T00:34:05.487Z,0.00
2022-09-10T00:36:38.984Z,0.00
2022-09-10T00:39:15.051Z,0.03
2022-09-10T00:41:48.199Z,0.05
2022-09-10T00:44:42.644Z,0.00
2022-09-10T00:47:38.769Z,0.00
2022-09-10T00:50:22.631Z,0.20
2022-09-10T00:52:55.425Z,0.20
2022-09-10T00:55:26.972Z,0.10
2022-09-10T00:58:01.940Z,0.00
2022-09-10T01:00:33.540Z,0.00
2022-09-10T01:03:05.377Z,0.00
2022-09-10T01:05:36.453Z,0.05
2022-09-10T01:08:07.733Z,0.00
2022-09-10T01:10:49.703Z,0.00
2022-09-10T01:13:44.725Z,0.20
2022-09-10T01:16:18.201Z,0.00
2022-09-10T01:18:54.617Z,0.10
2022-09-10T01:22:03.048Z,0.00
2022-09-10T01:24:39.497Z,0.00
2022-09-10T01:27:26.321Z,0.00
2022-09-10T01:30:09.400Z,0.10
2022-09-10T01:32:50.286Z,0.10
2022-09-10T01:35:28.740Z,0.10
2022-09-10T01:38:05.037Z,0.10
2022-09-10T01:40:37.278Z,0.15
2022-09-10T01:43:12.795Z,0.00
2022-09-10T01:45:56.877Z,0.05
2022-09-10T01:48:41.621Z,0.00
2022-09-10T01:52:08.453Z,0.00
2022-09-10T01:55:11.797Z,0.00
2022-09-10T01:58:12.329Z,0.00
2022-09-10T02:00:47.270Z,0.00
2022-09-10T02:03:22.184Z,0.10
2022-09-10T02:05:55.579Z,0.08
2022-09-10T02:08:32.817Z,0.00
2022-09-10T02:11:07.920Z,0.00
2022-09-10T02:13:38.944Z,0.03
2022-09-10T02:16:16.287Z,0.00
2022-09-10T02:18:46.760Z,0.00
2022-09-10T02:21:17.412Z,0.00
2022-09-10T02:23:51.964Z,0.05
2022-09-10T02:26:22.208Z,0.00
2022-09-10T02:28:52.765Z,0.05
2022-09-10T02:31:23.019Z,0.10
2022-09-10T02:33:53.359Z,0.00
2022-09-10T02:36:27.833Z,0.00
2022-09-10T02:38:58.706Z,0.00
2022-09-10T02:41:29.640Z,0.10
2022-09-10T02:43:59.832Z,0.00
2022-09-10T02:46:30.681Z,0.00
2022-09-10T02:49:00.889Z,0.00
2022-09-10T02:51:31.008Z,0.00
2022-09-10T02:54:01.565Z,0.00
2022-09-10T02:56:32.167Z,0.00
2022-09-10T02:59:02.358Z,0.03
2022-09-10T03:01:32.749Z,0.00
2022-09-10T03:04:02.991Z,0.10
2022-09-10T03:06:33.338Z,0.10
2022-09-10T03:09:03.851Z,0.10
2022-09-10T03:11:34.661Z,0.00
2022-09-10T03:14:05.969Z,0.00
2022-09-10T03:16:36.682Z,0.10
2022-09-10T03:19:06.943Z,0.10
2022-09-10T03:21:37.154Z,0.30
2022-09-10T03:24:08.692Z,0.00
2022-09-10T03:26:39.562Z,0.03
2022-09-10T03:29:09.988Z,0.10
2022-09-10T03:31:41.231Z,0.10
2022-09-10T03:34:14.318Z,0.00
2022-09-10T03:36:44.694Z,0.00
2022-09-10T03:39:15.804Z,0.00
2022-09-10T03:41:47.075Z,0.00
2022-09-10T03:44:18.031Z,0.00
2022-09-10T03:46:50.332Z,0.00
2022-09-10T03:49:21.000Z,0.00
2022-09-10T03:51:51.607Z,0.10
2022-09-10T03:54:22.365Z,0.00
2022-09-10T03:56:52.563Z,0.00
2022-09-10T03:59:23.521Z,0.05
2022-09-10T04:01:53.773Z,0.00
2022-09-10T04:04:24.018Z,0.10
2022-09-10T04:06:56.195Z,0.00
2022-09-10T04:09:26.701Z,0.10
2022-09-10T04:11:57.159Z,0.10
2022-09-10T04:14:28.822Z,0.00
2022-09-10T04:17:02.501Z,0.10
2022-09-10T04:19:32.657Z,0.55
2022-09-10T04:22:03.150Z,0.10
2022-09-10T04:24:33.258Z,0.08
2022-09-10T04:27:04.049Z,0.03
2022-09-10T04:29:34.238Z,0.10
2022-09-10T04:32:05.649Z,0.00
2022-09-10T04:34:36.318Z,0.10
2022-09-10T04:37:07.172Z,0.03
2022-09-10T04:39:38.101Z,0.10
2022-09-10T04:42:09.183Z,0.00
2022-09-10T04:44:39.362Z,0.00
2022-09-10T04:47:09.783Z,0.10
2022-09-10T04:49:40.052Z,0.10
2022-09-10T04:52:11.067Z,0.00
2022-09-10T04:54:41.592Z,0.00
2022-09-10T04:57:11.779Z,0.10
2022-09-10T04:59:42.174Z,0.00
2022-09-10T05:02:12.412Z,0.10
2022-09-10T05:04:42.646Z,0.10
2022-09-10T05:07:13.644Z,0.00
2022-09-10T05:09:45.397Z,0.10
2022-09-10T05:12:17.928Z,0.10
2022-09-10T05:14:48.274Z,0.20
2022-09-10T05:17:22.226Z,0.20
2022-09-10T05:19:52.957Z,0.08
2022-09-10T05:22:33.699Z,0.10
2022-09-10T05:25:08.836Z,0.10
2022-09-10T05:27:39.126Z,0.13
2022-09-10T05:30:09.983Z,0.47
2022-09-10T05:32:41.770Z,0.10
2022-09-10T05:35:12.920Z,0.20
2022-09-10T05:37:43.453Z,0.40
2022-09-10T05:40:18.077Z,0.10
2022-09-10T05:42:48.985Z,0.10
2022-09-10T05:45:23.522Z,0.20
2022-09-10T05:47:54.639Z,0.20
2022-09-10T05:50:25.726Z,0.20
2022-09-10T05:52:56.002Z,0.10
2022-09-10T05:55:27.151Z,0.13
2022-09-10T05:58:00.620Z,0.20
2022-09-10T06:00:31.590Z,0.03
2022-09-10T06:03:03.184Z,0.10
2022-09-10T06:05:34.449Z,0.10
2022-09-10T06:08:08.570Z,0.10
2022-09-10T06:10:40.416Z,0.10
2022-09-10T06:13:12.984Z,0.10
2022-09-10T06:15:43.888Z,0.10
2022-09-10T06:18:15.369Z,0.10
2022-09-10T06:20:45.852Z,0.10
2022-09-10T06:23:18.728Z,0.05
2022-09-10T06:25:50.075Z,0.00
2022-09-10T06:28:20.257Z,0.10
2022-09-10T06:30:50.850Z,0.08
2022-09-10T06:33:21.250Z,0.20
2022-09-10T06:36:03.279Z,0.10
2022-09-10T06:38:35.383Z,0.00
2022-09-10T06:41:14.187Z,0.10
2022-09-10T06:43:45.563Z,0.10
2022-09-10T06:49:14.276Z,0.10
2022-09-10T06:51:45.120Z,0.10
2022-09-10T06:54:16.807Z,0.10
2022-09-10T06:56:50.970Z,0.28
2022-09-10T06:59:21.590Z,0.00
2022-09-10T07:01:51.816Z,0.00
2022-09-10T07:04:22.126Z,0.10
2022-09-10T07:06:53.198Z,0.10
2022-09-10T07:09:23.365Z,0.38
2022-09-10T07:11:54.020Z,0.32
2022-09-10T07:14:24.224Z,0.30
2022-09-10T07:16:55.114Z,0.10
2022-09-10T07:19:25.422Z,0.40
2022-09-10T07:21:55.632Z,0.47
2022-09-10T07:24:25.974Z,0.40
2022-09-10T07:26:56.135Z,0.40
2022-09-10T07:29:26.389Z,0.30
2022-09-10T07:31:56.599Z,0.10
2022-09-10T07:34:27.002Z,0.15
2022-09-10T07:36:58.392Z,0.10
2022-09-10T07:39:28.620Z,0.20
2022-09-10T07:41:58.895Z,0.10
2022-09-10T07:44:29.523Z,0.20
2022-09-10T07:47:00.017Z,0.10
2022-09-10T07:49:30.238Z,0.30
2022-09-10T07:52:01.358Z,0.22
2022-09-10T07:54:31.622Z,0.10
2022-09-10T07:57:01.797Z,0.15
2022-09-10T07:59:35.359Z,0.10
2022-09-10T08:02:06.367Z,0.52
2022-09-10T08:04:42.180Z,0.20
2022-09-10T08:07:12.648Z,0.10
2022-09-10T08:09:42.891Z,0.28
2022-09-10T08:12:13.087Z,0.70
2022-09-10T08:14:44.072Z,0.45
2022-09-10T08:17:14.723Z,0.30
2022-09-10T08:19:46.545Z,0.20
2022-09-10T08:22:17.422Z,0.22
2022-09-10T08:24:50.454Z,0.20
2022-09-10T08:27:24.211Z,0.20
2022-09-10T08:29:57.486Z,0.20
2022-09-10T08:32:31.660Z,0.15
2022-09-10T08:35:01.873Z,0.52
2022-09-10T08:37:32.886Z,0.60
2022-09-10T08:40:04.980Z,0.75
2022-09-10T08:43:04.845Z,0.90
2022-09-10T08:45:36.263Z,0.30
2022-09-10T08:48:15.541Z,0.70
2022-09-10T08:50:59.195Z,0.70
2022-09-10T08:54:00.204Z,0.73
2022-09-10T08:56:32.937Z,0.30
2022-09-10T08:59:07.166Z,0.20
2022-09-10T09:01:58.387Z,0.20
2022-09-10T09:04:52.738Z,0.30
2022-09-10T09:07:24.509Z,0.20
2022-09-10T09:09:55.668Z,0.30
2022-09-10T09:12:55.528Z,0.20
2022-09-10T09:15:35.169Z,0.20
2022-09-10T09:18:35.911Z,0.30
2022-09-10T09:21:18.927Z,0.17
2022-09-10T09:24:12.636Z,0.20
2022-09-10T09:26:47.685Z,0.20
2022-09-10T09:29:27.570Z,0.20
2022-09-10T09:32:02.232Z,0.30
2022-09-10T09:34:46.214Z,0.20
2022-09-10T09:37:23.310Z,0.30
2022-09-10T09:40:09.835Z,0.38
2022-09-10T09:42:52.724Z,0.30
2022-09-10T09:45:36.851Z,0.40
2022-09-10T09:48:09.394Z,0.30
2022-09-10T09:50:43.734Z,0.20
2022-09-10T09:53:27.343Z,0.20
2022-09-10T09:56:09.055Z,0.20
2022-09-10T09:58:42.153Z,0.20
2022-09-10T10:01:19.348Z,0.20
2022-09-10T10:03:54.228Z,0.20
2022-09-10T10:06:32.006Z,0.20
2022-09-10T10:09:08.824Z,0.30
2022-09-10T10:14:39.828Z,0.40
2022-09-10T10:17:34.359Z,0.20
2022-09-10T10:20:20.028Z,0.22
2022-09-10T10:22:53.270Z,0.20
2022-09-10T10:25:54.277Z,0.40
2022-09-10T10:28:29.622Z,0.30
2022-09-10T10:31:03.138Z,0.20
2022-09-10T10:33:37.624Z,0.20
2022-09-10T10:36:29.461Z,0.20
2022-09-10T10:39:31.738Z,0.40
2022-09-10T10:42:15.965Z,0.80
2022-09-10T10:45:01.392Z,0.35
2022-09-10T10:47:57.867Z,0.38
2022-09-10T10:50:44.382Z,0.75
2022-09-10T10:53:24.282Z,0.47
2022-09-10T10:56:30.595Z,0.65
2022-09-10T10:59:19.061Z,0.20
2022-09-10T11:02:18.685Z,0.30
2022-09-10T11:05:00.134Z,0.20
2022-09-10T11:07:49.031Z,0.22
2022-09-10T11:10:41.475Z,0.20
2022-09-10T11:13:12.323Z,0.20
2022-09-10T11:16:18.395Z,0.28
2022-09-10T11:19:06.692Z,0.20
2022-09-10T11:21:47.683Z,0.20
2022-09-10T11:24:28.685Z,0.25
2022-09-10T11:27:24.306Z,0.17
2022-09-10T11:30:15.369Z,0.20
2022-09-10T11:32:53.991Z,0.20
2022-09-10T11:35:43.056Z,0.63
2022-09-10T11:38:29.402Z,0.20
2022-09-10T11:41:25.170Z,0.20
2022-09-10T11:44:04.727Z,0.20
2022-09-10T11:46:40.713Z,0.30
2022-09-10T11:49:18.296Z,0.10
2022-09-10T11:51:49.749Z,0.17
2022-09-10T11:54:27.109Z,0.28
2022-09-10T11:57:15.619Z,0.20
2022-09-10T12:00:17.478Z,0.20
2022-09-10T12:03:30.397Z,0.30
2022-09-10T12:06:19.065Z,0.40
2022-09-10T12:09:21.457Z,1.13
2022-09-10T12:12:08.825Z,0.30
2022-09-10T12:14:43.148Z,0.30
2022-09-10T12:17:21.531Z,0.20
2022-09-10T12:19:57.206Z,0.22
2022-09-10T12:22:43.487Z,0.50
2022-09-10T12:25:23.602Z,0.38
2022-09-10T12:28:05.770Z,0.30
2022-09-10T12:30:36.537Z,0.43
2022-09-10T12:33:15.882Z,0.75
2022-09-10T12:35:49.290Z,0.63
2022-09-10T12:38:47.398Z,0.30
2022-09-10T12:44:02.841Z,0.30
2022-09-10T12:46:35.105Z,0.35
2022-09-10T12:49:05.293Z,0.25
2022-09-10T12:51:55.534Z,0.85
2022-09-10T12:54:35.221Z,2.00
2022-09-10T12:57:24.425Z,1.60
2022-09-10T13:00:00.732Z,0.75
2022-09-10T13:02:36.389Z,0.63
2022-09-10T13:05:22.551Z,0.88
2022-09-10T13:08:06.536Z,1.20
2022-09-10T13:10:37.431Z,0.93
2022-09-10T13:13:26.238Z,1.23
2022-09-10T13:15:57.225Z,0.88
2022-09-10T13:18:33.881Z,1.08
2022-09-10T13:21:26.427Z,1.15
2022-09-10T13:23:58.279Z,1.25
2022-09-10T13:26:39.964Z,0.63
2022-09-10T13:29:30.441Z,1.40
2022-09-10T13:32:09.806Z,0.93
2022-09-10T13:35:08.152Z,0.85
2022-09-10T13:38:09.334Z,0.40
2022-09-10T13:40:58.880Z,0.32
2022-09-10T13:43:51.052Z,0.30
2022-09-10T13:46:35.032Z,0.30
2022-09-10T13:49:37.573Z,0.55
2022-09-10T13:52:14.143Z,0.73
2022-09-10T13:54:57.050Z,0.43
2022-09-10T13:57:43.147Z,0.77
2022-09-10T14:00:27.600Z,0.40
2022-09-10T14:03:02.846Z,0.60
2022-09-10T14:05:45.361Z,0.20
2022-09-10T14:08:44.374Z,0.52
2022-09-10T14:11:23.472Z,0.50
2022-09-10T14:14:18.322Z,0.63
2022-09-10T14:16:58.254Z,0.50
2022-09-10T14:19:39.196Z,0.43
2022-09-10T14:22:10.184Z,0.70
2022-09-10T14:24:46.280Z,1.00
2022-09-10T14:27:27.545Z,0.60
2022-09-10T14:30:00.319Z,0.80
2022-09-10T14:32:39.357Z,1.10
2022-09-10T14:35:38.062Z,0.63
2022-09-10T14:38:48.284Z,0.70
2022-09-10T14:41:27.970Z,0.63
2022-09-10T14:44:26.891Z,0.60
2022-09-10T14:47:12.773Z,1.08
2022-09-10T14:49:46.633Z,0.65
2022-09-10T14:52:17.763Z,0.50
2022-09-10T14:54:49.777Z,0.85
2022-09-10T14:57:20.611Z,0.80
2022-09-10T14:59:53.125Z,1.15
2022-09-10T15:02:29.642Z,0.40
2022-09-10T15:04:59.856Z,0.40
2022-09-10T15:07:30.909Z,0.45
2022-09-10T15:10:02.999Z,0.38
2022-09-10T15:12:35.579Z,0.30
2022-09-10T15:15:07.480Z,0.73
2022-09-10T15:17:38.014Z,0.32
2022-09-10T15:20:08.611Z,1.67
2022-09-10T15:22:38.812Z,0.50
2022-09-10T15:25:11.029Z,0.60
2022-09-10T15:27:43.848Z,0.40
2022-09-10T15:30:14.072Z,0.40
2022-09-10T15:32:44.245Z,0.40
2022-09-10T15:35:14.933Z,0.55
2022-09-10T15:37:45.102Z,0.50
2022-09-10T15:40:15.352Z,0.20
2022-09-10T15:42:45.914Z,0.40
2022-09-10T15:45:16.195Z,0.40
2022-09-10T15:47:46.836Z,0.60
2022-09-10T15:50:17.840Z,0.45
2022-09-10T15:52:49.273Z,0.40
2022-09-10T15:55:21.166Z,0.38
2022-09-10T15:57:54.908Z,0.40
2022-09-10T16:00:25.109Z,0.40
2022-09-10T16:02:56.136Z,0.35
2022-09-10T16:05:26.733Z,0.63
2022-09-10T16:07:56.879Z,0.40
2022-09-10T16:10:28.035Z,0.38
2022-09-10T16:12:58.631Z,0.60
2022-09-10T16:15:28.777Z,0.40
2022-09-10T16:17:59.776Z,0.82
2022-09-10T16:20:29.946Z,0.45
2022-09-10T16:23:01.180Z,0.28
2022-09-10T16:25:33.145Z,0.30
2022-09-10T16:28:03.885Z,0.35
2022-09-10T16:30:34.086Z,0.60
2022-09-10T16:33:05.330Z,0.98
2022-09-10T16:35:37.864Z,0.30
2022-09-10T16:38:08.326Z,0.30
2022-09-10T16:40:38.685Z,0.32
2022-09-10T16:43:09.338Z,0.40
2022-09-10T16:45:40.039Z,0.35
2022-09-10T16:48:11.425Z,0.60
2022-09-10T16:50:41.864Z,0.35
2022-09-10T16:53:12.241Z,0.50
2022-09-10T16:55:43.294Z,0.68
2022-09-10T16:58:14.195Z,0.73
2022-09-10T17:00:46.207Z,0.30
2022-09-10T17:03:16.973Z,0.47
2022-09-10T17:05:50.440Z,0.40
2022-09-10T17:08:34.008Z,0.45
2022-09-10T17:11:04.239Z,0.45
2022-09-10T17:13:34.891Z,0.38
2022-09-10T17:16:24.516Z,0.45
2022-09-10T17:19:22.904Z,0.30
2022-09-10T17:21:57.258Z,0.40
2022-09-10T17:24:29.493Z,0.47
2022-09-10T17:26:59.699Z,0.40
2022-09-10T17:29:29.923Z,0.30
2022-09-10T17:32:00.643Z,0.30
2022-09-10T17:34:30.797Z,0.40
2022-09-10T17:37:01.341Z,0.52
2022-09-10T17:39:31.601Z,0.30
2022-09-10T17:42:02.489Z,1.50
2022-09-10T17:44:32.674Z,0.30
2022-09-10T17:47:02.840Z,0.40
2022-09-10T17:49:33.377Z,0.50
2022-09-10T17:52:05.420Z,0.32
2022-09-10T17:54:35.609Z,0.50
2022-09-10T17:57:05.840Z,0.63
2022-09-10T17:59:36.853Z,0.45
2022-09-10T18:02:08.118Z,0.45
2022-09-10T18:04:38.777Z,0.43
2022-09-10T18:07:09.240Z,0.95
2022-09-10T18:09:39.945Z,0.30
2022-09-10T18:12:10.303Z,0.60
2022-09-10T18:14:40.493Z,1.08
2022-09-10T18:17:10.893Z,0.47
2022-09-10T18:19:41.171Z,0.20
2022-09-10T18:22:11.440Z,0.45
2022-09-10T18:24:42.015Z,0.40
2022-09-10T18:27:12.193Z,0.70
2022-09-10T18:29:44.658Z,0.40
2022-09-10T18:32:17.119Z,0.88
2022-09-10T18:34:47.339Z,0.40
2022-09-10T18:37:17.495Z,0.30
2022-09-10T18:39:47.633Z,0.38
2022-09-10T18:42:18.090Z,0.30
2022-09-10T18:44:48.249Z,0.30
2022-09-10T18:47:41.364Z,0.45
2022-09-10T18:50:09.061Z,0.40
2022-09-10T18:52:39.829Z,0.30
2022-09-10T18:55:11.143Z,0.30
2022-09-10T18:57:41.304Z,0.50
2022-09-10T19:00:12.390Z,0.60
2022-09-10T19:02:43.023Z,0.30
2022-09-10T19:05:13.214Z,0.77
2022-09-10T19:07:43.354Z,0.60
2022-09-10T19:10:13.558Z,0.30
2022-09-10T19:12:43.729Z,0.50
2022-09-10T19:15:14.095Z,0.50
2022-09-10T19:17:44.235Z,0.50
2022-09-10T19:20:14.370Z,0.40
2022-09-10T19:22:45.034Z,0.75
2022-09-10T19:25:15.670Z,0.60
2022-09-10T19:27:46.861Z,0.70
2022-09-10T19:30:17.084Z,0.55
2022-09-10T19:32:47.662Z,0.63
2022-09-10T19:35:17.899Z,1.00
2022-09-10T19:37:49.981Z,0.70
2022-09-10T19:40:20.158Z,0.60
2022-09-10T19:42:50.310Z,0.55
2022-09-10T19:45:20.479Z,0.57
2022-09-10T19:47:52.527Z,0.52
2022-09-10T19:59:53.115Z,1.00
2022-09-10T20:02:24.025Z,0.70
2022-09-10T20:04:54.448Z,0.93
2022-09-10T20:07:24.891Z,0.68
2022-09-10T20:09:57.326Z,1.17
2022-09-10T20:12:27.877Z,1.02
2022-09-10T20:14:58.526Z,0.98
2022-09-10T20:50:08.219Z,1.60
2022-09-10T20:52:39.374Z,0.63
2022-09-10T20:55:11.579Z,0.82
2022-09-10T20:57:41.837Z,0.80
2022-09-10T21:00:13.178Z,0.80
2022-09-10T21:02:43.768Z,0.90
2022-09-10T21:05:15.457Z,0.60
2022-09-10T21:07:45.653Z,0.60
2022-09-10T21:10:15.921Z,0.77
2022-09-10T21:12:46.178Z,0.50
2022-09-10T21:15:16.458Z,0.55
2022-09-10T21:17:47.259Z,0.70
2022-09-10T21:20:17.751Z,0.80
2022-09-10T21:22:47.920Z,0.70
2022-09-10T21:25:18.262Z,0.70
2022-09-10T21:27:48.892Z,0.50
2022-09-10T21:30:19.494Z,1.48
2022-09-10T21:32:49.640Z,0.65
2022-09-10T21:35:20.601Z,0.80
2022-09-10T21:37:50.766Z,0.70
2022-09-10T21:40:20.948Z,0.98
2022-09-10T21:42:51.490Z,0.57
2022-09-10T21:45:26.051Z,0.50
2022-09-10T21:47:56.416Z,0.57
2022-09-10T21:50:26.764Z,0.60
2022-09-10T21:52:56.953Z,1.80
2022-09-10T21:55:27.169Z,0.50
2022-09-10T21:57:58.070Z,0.55
2022-09-10T22:00:29.683Z,0.60
2022-09-10T22:03:00.033Z,0.70
2022-09-10T22:05:30.232Z,0.40
2022-09-10T22:08:00.871Z,0.73
2022-09-10T22:10:35.378Z,0.52
2022-09-10T22:13:06.231Z,1.13
2022-09-10T22:15:42.255Z,0.55
2022-09-10T22:18:13.097Z,0.60
2022-09-10T22:20:43.213Z,0.88
2022-09-10T22:23:16.490Z,1.00
2022-09-10T22:25:46.660Z,0.73
2022-09-10T22:28:16.926Z,0.50
2022-09-10T22:30:47.479Z,0.43
2022-09-10T22:33:18.068Z,0.60
2022-09-10T22:35:48.664Z,0.52
2022-09-10T22:38:27.987Z,0.50
2022-09-10T22:40:58.926Z,0.50
2022-09-10T22:43:29.166Z,0.57
2022-09-10T22:46:02.404Z,0.85
2022-09-10T22:48:33.142Z,0.60
2022-09-10T22:51:03.946Z,0.68
2022-09-10T22:53:34.945Z,0.30
2022-09-10T22:56:05.639Z,0.43
2022-09-10T22:58:37.794Z,0.50
2022-09-10T23:01:13.670Z,0.40
2022-09-10T23:03:45.667Z,0.73
2022-09-10T23:06:18.141Z,0.80
2022-09-10T23:08:51.889Z,0.30
2022-09-10T23:11:27.955Z,0.30
2022-09-10T23:14:00.911Z,0.33
2022-09-10T23:16:42.541Z,0.50
2022-09-10T23:19:18.385Z,0.55
2022-09-10T23:21:52.046Z,0.63
2022-09-10T23:24:25.943Z,0.30
2022-09-10T23:26:58.926Z,0.60
2022-09-10T23:29:30.823Z,0.40
2022-09-10T23:32:01.429Z,0.30
2022-09-10T23:34:31.870Z,0.88
2022-09-10T23:37:02.002Z,0.35
2022-09-10T23:39:36.534Z,0.35
2022-09-10T23:42:08.375Z,0.40
2022-09-10T23:44:39.978Z,0.82
2022-09-10T23:47:12.394Z,0.50
2022-09-10T23:49:42.710Z,0.40
2022-09-10T23:52:13.267Z,0.50
2022-09-10T23:54:43.991Z,0.75
2022-09-10T23:57:14.597Z,0.50
2022-09-10T23:59:44.826Z,0.88
